createdAt,value
2023-02-04T00:00:37.162Z,3.00
2023-02-04T00:03:24.942Z,3.20
2023-02-04T00:05:52.613Z,2.60
2023-02-04T00:08:20.253Z,3.20
2023-02-04T00:10:48.049Z,2.50
2023-02-04T00:13:15.734Z,3.00
2023-02-04T00:15:43.490Z,3.00
2023-02-04T00:18:11.282Z,2.80
2023-02-04T00:20:41.459Z,3.00
2023-02-04T00:23:09.068Z,3.70
2023-02-04T00:25:36.847Z,2.80
2023-02-04T00:28:06.379Z,3.00
2023-02-04T00:30:34.150Z,2.50
2023-02-04T00:33:01.883Z,2.00
2023-02-04T00:35:29.711Z,1.30
2023-02-04T00:37:57.534Z,1.00
2023-02-04T00:40:25.201Z,2.40
2023-02-04T00:42:52.841Z,1.30
2023-02-04T00:45:20.816Z,0.90
2023-02-04T00:47:48.486Z,0.80
2023-02-04T00:50:16.909Z,0.60
2023-02-04T00:52:44.672Z,0.90
2023-02-04T00:55:12.805Z,0.70
2023-02-04T00:57:40.525Z,1.00
2023-02-04T01:00:11.113Z,1.50
2023-02-04T01:02:40.679Z,1.40
2023-02-04T01:05:09.082Z,1.80
2023-02-04T01:07:37.353Z,1.70
2023-02-04T01:10:05.625Z,2.40
2023-02-04T01:12:33.432Z,2.70
2023-02-04T01:15:01.364Z,1.90
2023-02-04T01:17:29.067Z,1.70
2023-02-04T01:19:56.722Z,2.40
2023-02-04T01:22:24.363Z,3.70
2023-02-04T01:24:52.116Z,2.70
2023-02-04T01:27:19.807Z,2.80
2023-02-04T01:29:47.428Z,1.20
2023-02-04T01:32:15.138Z,2.30
2023-02-04T01:34:42.783Z,1.50
2023-02-04T01:37:10.508Z,1.90
2023-02-04T01:39:38.298Z,1.20
2023-02-04T01:42:06.351Z,2.80
2023-02-04T01:44:34.140Z,2.60
2023-02-04T01:47:01.917Z,1.90
2023-02-04T01:49:29.886Z,2.00
2023-02-04T01:51:58.011Z,2.40
2023-02-04T01:54:27.431Z,1.40
2023-02-04T01:56:55.522Z,2.60
2023-02-04T01:59:23.524Z,2.30
2023-02-04T02:01:53.712Z,1.60
2023-02-04T02:04:32.123Z,1.80
2023-02-04T02:07:05.398Z,1.60
2023-02-04T02:09:34.608Z,1.80
2023-02-04T02:12:04.223Z,1.20
2023-02-04T02:14:31.947Z,0.90
2023-02-04T02:16:59.742Z,1.50
2023-02-04T02:19:36.353Z,1.60
2023-02-04T02:22:39.646Z,1.50
2023-02-04T02:25:13.323Z,1.50
2023-02-04T02:27:41.905Z,1.20
2023-02-04T02:30:12.506Z,0.90
2023-02-04T02:32:40.973Z,1.50
2023-02-04T02:35:09.139Z,1.20
2023-02-04T02:37:37.251Z,1.20
2023-02-04T02:40:07.223Z,1.40
2023-02-04T02:42:36.167Z,0.90
2023-02-04T02:45:15.934Z,0.80
2023-02-04T02:47:43.669Z,0.70
2023-02-04T02:50:17.741Z,0.70
2023-02-04T02:52:45.541Z,0.70
2023-02-04T02:55:19.049Z,1.10
2023-02-04T02:57:49.491Z,1.20
2023-02-04T03:00:27.642Z,0.70
2023-02-04T03:03:13.742Z,0.90
2023-02-04T03:05:46.571Z,1.10
2023-02-04T03:08:16.515Z,1.60
2023-02-04T03:10:46.067Z,1.00
2023-02-04T03:13:16.186Z,1.80
2023-02-04T03:15:47.481Z,1.60
2023-02-04T03:18:19.657Z,1.80
2023-02-04T03:20:50.092Z,2.20
2023-02-04T03:23:18.823Z,2.30
2023-02-04T03:25:49.585Z,2.70
2023-02-04T03:28:17.386Z,3.50
2023-02-04T03:30:56.001Z,3.40
2023-02-04T03:33:29.037Z,2.70
2023-02-04T03:35:58.365Z,3.40
2023-02-04T03:38:26.822Z,3.50
2023-02-04T03:40:54.575Z,2.70
2023-02-04T03:43:22.238Z,2.90
2023-02-04T03:45:49.964Z,2.30
2023-02-04T03:48:17.734Z,2.40
2023-02-04T03:50:45.452Z,2.40
2023-02-04T03:53:13.340Z,3.80
2023-02-04T03:55:40.990Z,3.10
2023-02-04T03:58:08.683Z,2.90
2023-02-04T04:00:36.384Z,3.60
2023-02-04T04:03:04.178Z,2.10
2023-02-04T04:05:32.516Z,2.30
2023-02-04T04:08:00.271Z,2.20
2023-02-04T04:10:29.532Z,3.00
2023-02-04T04:12:57.618Z,2.20
2023-02-04T04:15:25.422Z,2.80
2023-02-04T04:17:53.182Z,2.00
2023-02-04T04:20:25.313Z,1.60
2023-02-04T04:22:52.988Z,1.70
2023-02-04T04:25:20.996Z,2.30
2023-02-04T04:27:48.692Z,1.80
2023-02-04T04:30:16.769Z,1.80
2023-02-04T04:32:44.436Z,1.60
2023-02-04T04:35:12.187Z,1.80
2023-02-04T04:37:39.889Z,1.50
2023-02-04T04:40:11.425Z,1.90
2023-02-04T04:42:39.077Z,1.80
2023-02-04T04:45:09.538Z,2.20
2023-02-04T04:47:37.291Z,1.60
2023-02-04T04:50:05.368Z,1.40
2023-02-04T04:52:33.157Z,2.10
2023-02-04T04:55:00.953Z,2.70
2023-02-04T04:57:28.761Z,2.00
2023-02-04T04:59:56.411Z,2.30
2023-02-04T05:02:24.041Z,2.10
2023-02-04T05:04:51.935Z,2.00
2023-02-04T05:07:19.593Z,2.20
2023-02-04T05:09:47.244Z,2.90
2023-02-04T05:12:14.919Z,2.40
2023-02-04T05:14:42.629Z,2.30
2023-02-04T05:17:10.303Z,2.40
2023-02-04T05:19:38.020Z,3.10
2023-02-04T05:22:05.619Z,3.30
2023-02-04T05:24:33.334Z,3.10
2023-02-04T05:27:01.029Z,2.50
2023-02-04T05:29:28.817Z,2.60
2023-02-04T05:31:56.561Z,2.50
2023-02-04T05:34:24.379Z,2.90
2023-02-04T05:36:52.146Z,4.10
2023-02-04T05:39:20.014Z,3.70
2023-02-04T05:41:47.925Z,2.60
2023-02-04T05:44:15.691Z,2.40
2023-02-04T05:46:43.438Z,2.80
2023-02-04T05:49:11.311Z,4.20
2023-02-04T05:51:39.082Z,2.50
2023-02-04T05:54:06.894Z,3.30
2023-02-04T05:56:34.522Z,3.10
2023-02-04T05:59:02.253Z,3.60
2023-02-04T06:01:30.183Z,3.00
2023-02-04T06:04:01.217Z,3.00
2023-02-04T06:06:28.888Z,3.00
2023-02-04T06:08:56.630Z,3.40
2023-02-04T06:11:24.354Z,3.40
2023-02-04T06:13:52.675Z,3.20
2023-02-04T06:16:20.439Z,2.90
2023-02-04T06:18:48.114Z,3.00
2023-02-04T06:21:15.970Z,2.80
2023-02-04T06:23:43.776Z,4.10
2023-02-04T06:26:11.966Z,3.20
2023-02-04T06:28:39.619Z,4.00
2023-02-04T06:31:09.170Z,5.10
2023-02-04T06:33:37.535Z,4.00
2023-02-04T06:36:05.462Z,3.70
2023-02-04T06:38:33.117Z,5.20
2023-02-04T06:41:00.747Z,3.40
2023-02-04T06:43:28.593Z,2.80
2023-02-04T06:45:56.456Z,3.50
2023-02-04T06:48:24.314Z,3.70
2023-02-04T06:50:52.089Z,3.50
2023-02-04T06:53:19.725Z,3.20
2023-02-04T06:55:47.371Z,4.30
2023-02-04T06:58:15.107Z,2.90
2023-02-04T07:00:42.797Z,4.70
2023-02-04T07:03:10.894Z,4.70
2023-02-04T07:05:38.480Z,4.80
2023-02-04T07:08:06.299Z,6.20
2023-02-04T07:10:34.362Z,4.00
2023-02-04T07:13:02.269Z,4.30
2023-02-04T07:15:31.009Z,5.10
2023-02-04T07:17:58.724Z,3.60
2023-02-04T07:20:26.518Z,5.70
2023-02-04T07:22:54.183Z,5.80
2023-02-04T07:25:21.994Z,3.70
2023-02-04T07:27:49.713Z,4.00
2023-02-04T07:30:17.589Z,4.70
2023-02-04T07:32:45.397Z,4.00
2023-02-04T07:35:13.103Z,5.00
2023-02-04T07:37:40.838Z,7.00
2023-02-04T07:40:11.573Z,9.60
2023-02-04T07:42:39.258Z,10.30
2023-02-04T07:45:08.039Z,7.00
2023-02-04T07:47:35.780Z,10.20
2023-02-04T07:50:03.858Z,5.90
2023-02-04T07:52:31.584Z,7.60
2023-02-04T07:54:59.584Z,4.70
2023-02-04T07:57:27.561Z,3.00
2023-02-04T07:59:55.535Z,4.90
2023-02-04T08:02:23.640Z,5.60
2023-02-04T08:04:51.513Z,5.50
2023-02-04T08:07:19.361Z,4.10
2023-02-04T08:09:47.191Z,4.90
2023-02-04T08:12:14.890Z,6.00
2023-02-04T08:14:42.607Z,4.30
2023-02-04T08:17:10.249Z,4.00
2023-02-04T08:19:37.875Z,3.60
2023-02-04T08:22:06.095Z,3.50
2023-02-04T08:24:33.776Z,4.70
2023-02-04T08:27:01.596Z,5.10
2023-02-04T08:29:29.461Z,4.00
2023-02-04T08:31:57.552Z,3.60
2023-02-04T08:34:27.909Z,4.70
2023-02-04T08:36:55.869Z,4.60
2023-02-04T08:39:24.018Z,6.80
2023-02-04T08:41:52.057Z,5.00
2023-02-04T08:44:20.040Z,5.60
2023-02-04T08:46:48.351Z,4.90
2023-02-04T08:49:16.743Z,4.30
2023-02-04T08:51:44.618Z,6.20
2023-02-04T08:54:12.676Z,3.50
2023-02-04T08:56:41.715Z,4.80
2023-02-04T08:59:12.644Z,7.90
2023-02-04T09:01:40.528Z,4.20
2023-02-04T09:04:08.748Z,4.80
2023-02-04T09:06:38.146Z,4.90
2023-02-04T09:09:05.894Z,3.80
2023-02-04T09:11:33.550Z,3.90
2023-02-04T09:14:01.220Z,4.10
2023-02-04T09:16:31.279Z,3.70
2023-02-04T09:18:59.826Z,2.60
2023-02-04T09:21:28.719Z,5.30
2023-02-04T09:23:57.130Z,4.00
2023-02-04T09:26:24.847Z,4.60
2023-02-04T09:28:52.707Z,3.80
2023-02-04T09:31:20.444Z,3.60
2023-02-04T09:33:48.228Z,3.50
2023-02-04T09:36:16.004Z,4.30
2023-02-04T09:38:44.000Z,5.30
2023-02-04T09:41:13.190Z,3.70
2023-02-04T09:43:46.296Z,3.20
2023-02-04T09:46:28.507Z,3.70
2023-02-04T09:48:59.018Z,3.70
2023-02-04T09:51:32.116Z,3.80
2023-02-04T09:54:12.846Z,2.90
2023-02-04T09:56:41.482Z,3.90
2023-02-04T09:59:24.062Z,3.40
2023-02-04T10:02:02.850Z,3.50
2023-02-04T10:04:30.781Z,2.70
2023-02-04T10:06:59.031Z,4.10
2023-02-04T10:09:26.937Z,5.80
2023-02-04T10:11:54.930Z,2.40
2023-02-04T10:14:23.802Z,3.20
2023-02-04T10:16:59.453Z,3.60
2023-02-04T10:19:30.987Z,3.90
2023-02-04T10:21:59.462Z,2.70
2023-02-04T10:24:30.557Z,3.20
2023-02-04T10:27:16.016Z,2.20
2023-02-04T10:29:59.905Z,3.00
2023-02-04T10:32:34.225Z,2.80
2023-02-04T10:35:03.648Z,1.70
2023-02-04T10:37:32.256Z,3.00
2023-02-04T10:40:00.321Z,2.80
2023-02-04T10:42:30.962Z,2.90
2023-02-04T10:44:59.208Z,2.90
2023-02-04T10:47:31.537Z,2.60
2023-02-04T10:50:18.358Z,2.50
2023-02-04T10:52:51.077Z,1.70
2023-02-04T10:55:23.193Z,2.10
2023-02-04T10:57:53.768Z,2.00
2023-02-04T11:00:26.320Z,2.80
2023-02-04T11:03:05.221Z,3.30
2023-02-04T11:05:36.316Z,2.70
2023-02-04T11:08:40.381Z,3.50
2023-02-04T11:11:23.874Z,1.60
2023-02-04T11:13:51.466Z,2.60
2023-02-04T11:16:30.272Z,2.10
2023-02-04T11:19:03.541Z,3.00
2023-02-04T11:21:34.307Z,3.10
2023-02-04T11:24:14.021Z,3.50
2023-02-04T11:26:44.603Z,3.60
2023-02-04T11:29:15.446Z,2.90
2023-02-04T11:31:48.181Z,3.40
2023-02-04T11:34:15.885Z,5.20
2023-02-04T11:36:56.952Z,2.70
2023-02-04T11:39:48.295Z,3.00
2023-02-04T11:42:41.773Z,3.20
2023-02-04T11:45:35.420Z,3.70
2023-02-04T11:48:13.695Z,2.90
2023-02-04T11:50:42.143Z,2.60
2023-02-04T11:53:12.414Z,2.00
2023-02-04T11:55:47.503Z,2.50
2023-02-04T11:58:19.142Z,3.70
2023-02-04T12:00:47.568Z,2.60
2023-02-04T12:03:29.817Z,4.10
2023-02-04T12:05:59.067Z,3.30
2023-02-04T12:08:36.468Z,2.40
2023-02-04T12:11:27.192Z,1.50
2023-02-04T12:13:58.422Z,2.00
2023-02-04T12:16:26.544Z,3.00
2023-02-04T12:18:55.529Z,1.90
2023-02-04T12:21:23.201Z,1.80
2023-02-04T12:23:53.282Z,1.60
2023-02-04T12:26:20.922Z,1.80
2023-02-04T12:28:48.606Z,1.70
2023-02-04T12:31:16.436Z,3.30
2023-02-04T12:33:44.330Z,3.00
2023-02-04T12:36:12.274Z,4.60
2023-02-04T12:38:40.745Z,4.40
2023-02-04T12:41:08.697Z,2.80
2023-02-04T12:43:36.437Z,1.60
2023-02-04T12:46:04.717Z,1.90
2023-02-04T12:48:32.529Z,3.10
2023-02-04T12:51:00.233Z,3.10
2023-02-04T12:53:28.030Z,2.60
2023-02-04T12:55:57.706Z,2.20
2023-02-04T12:58:25.649Z,2.60
2023-02-04T13:00:53.421Z,2.40
2023-02-04T13:03:21.137Z,3.90
2023-02-04T13:05:48.840Z,3.60
2023-02-04T13:08:16.591Z,2.50
2023-02-04T13:10:44.354Z,2.40
2023-02-04T13:13:12.097Z,1.90
2023-02-04T13:15:41.892Z,2.50
2023-02-04T13:18:09.767Z,4.70
2023-02-04T13:20:37.845Z,4.30
2023-02-04T13:23:05.575Z,3.80
2023-02-04T13:25:33.728Z,3.80
2023-02-04T13:28:01.660Z,4.00
2023-02-04T13:30:29.522Z,3.30
2023-02-04T13:32:57.672Z,2.60
2023-02-04T13:35:25.499Z,2.90
2023-02-04T13:37:53.787Z,3.50
2023-02-04T13:40:22.578Z,2.30
2023-02-04T13:42:50.539Z,2.20
2023-02-04T13:45:19.442Z,4.00
2023-02-04T13:47:48.112Z,4.00
2023-02-04T13:50:19.036Z,3.30
2023-02-04T13:52:46.726Z,4.10
2023-02-04T13:55:14.487Z,2.70
2023-02-04T13:57:42.292Z,2.60
2023-02-04T14:00:11.399Z,2.20
2023-02-04T14:02:39.554Z,1.60
2023-02-04T14:05:07.487Z,3.60
2023-02-04T14:07:35.272Z,3.80
2023-02-04T14:10:03.055Z,5.30
2023-02-04T14:12:30.848Z,7.50
2023-02-04T14:14:58.672Z,7.20
2023-02-04T14:17:26.478Z,11.00
2023-02-04T14:19:54.182Z,5.10
2023-02-04T14:22:21.958Z,6.60
2023-02-04T14:24:50.381Z,4.70
2023-02-04T14:27:18.179Z,3.80
2023-02-04T14:29:45.900Z,6.70
2023-02-04T14:32:13.789Z,3.60
2023-02-04T14:34:41.452Z,5.10
2023-02-04T14:37:09.141Z,3.70
2023-02-04T14:39:36.802Z,3.40
2023-02-04T14:42:05.450Z,3.40
2023-02-04T14:44:33.161Z,3.50
2023-02-04T14:47:00.842Z,3.70
2023-02-04T14:49:28.584Z,5.40
2023-02-04T14:51:56.887Z,4.00
2023-02-04T14:54:24.585Z,4.80
2023-02-04T14:56:52.671Z,4.40
2023-02-04T14:59:20.353Z,4.10
2023-02-04T15:01:48.004Z,4.90
2023-02-04T15:04:15.994Z,11.20
2023-02-04T15:06:43.898Z,7.40
2023-02-04T15:09:12.337Z,9.00
2023-02-04T15:11:40.066Z,7.00
2023-02-04T15:14:07.882Z,9.30
2023-02-04T15:16:35.657Z,7.70
2023-02-04T15:19:03.679Z,4.00
2023-02-04T15:21:31.647Z,4.30
2023-02-04T15:23:59.369Z,3.60
2023-02-04T15:26:27.175Z,2.80
2023-02-04T15:28:55.831Z,4.60
2023-02-04T15:31:27.257Z,3.20
2023-02-04T15:33:55.137Z,4.70
2023-02-04T15:36:23.162Z,7.50
2023-02-04T15:38:50.829Z,6.70
2023-02-04T15:41:18.627Z,6.80
2023-02-04T15:43:48.855Z,6.80
2023-02-04T15:46:16.679Z,3.20
2023-02-04T15:48:44.958Z,6.30
2023-02-04T15:51:12.691Z,6.70
2023-02-04T15:53:40.506Z,8.90
2023-02-04T15:56:08.386Z,7.40
2023-02-04T15:58:36.772Z,6.90
2023-02-04T16:01:04.830Z,5.00
2023-02-04T16:03:32.798Z,5.20
2023-02-04T16:06:02.265Z,4.80
2023-02-04T16:08:29.997Z,5.70
2023-02-04T16:10:57.632Z,4.20
2023-02-04T16:13:25.455Z,4.50
2023-02-04T16:15:53.157Z,4.80
2023-02-04T16:18:20.961Z,6.90
2023-02-04T16:20:48.741Z,4.50
2023-02-04T16:23:16.457Z,5.40
2023-02-04T16:25:44.155Z,5.20
2023-02-04T16:28:12.012Z,5.20
2023-02-04T16:30:39.971Z,5.40
2023-02-04T16:33:07.909Z,6.20
2023-02-04T16:35:58.988Z,4.90
2023-02-04T16:38:28.274Z,3.60
2023-02-04T16:40:56.222Z,5.00
2023-02-04T16:43:24.316Z,3.60
2023-02-04T16:45:52.492Z,2.90
2023-02-04T16:48:20.263Z,5.30
2023-02-04T16:50:47.965Z,2.90
2023-02-04T16:53:16.224Z,4.60
2023-02-04T16:55:45.342Z,7.00
2023-02-04T16:58:14.588Z,5.70
2023-02-04T17:00:44.193Z,4.10
2023-02-04T17:03:13.278Z,2.40
2023-02-04T17:05:41.964Z,4.00
2023-02-04T17:08:13.209Z,3.70
2023-02-04T17:11:00.742Z,4.50
2023-02-04T17:13:28.707Z,4.00
2023-02-04T17:16:00.873Z,3.00
2023-02-04T17:18:32.854Z,3.30
2023-02-04T17:21:00.716Z,3.00
2023-02-04T17:23:28.929Z,4.10
2023-02-04T17:25:56.627Z,3.80
2023-02-04T17:28:24.387Z,3.40
2023-02-04T17:30:52.614Z,3.10
2023-02-04T17:33:20.519Z,3.30
2023-02-04T17:35:48.708Z,3.00
2023-02-04T17:38:16.542Z,2.10
2023-02-04T17:40:44.400Z,2.80
2023-02-04T17:43:12.430Z,2.30
2023-02-04T17:45:40.287Z,2.30
2023-02-04T17:48:08.426Z,1.90
2023-02-04T17:50:39.264Z,1.60
2023-02-04T17:53:08.950Z,3.40
2023-02-04T17:55:39.656Z,2.80
2023-02-04T17:58:14.832Z,3.90
2023-02-04T18:00:46.316Z,6.00
2023-02-04T18:03:22.438Z,2.80
2023-02-04T18:05:55.260Z,2.70
2023-02-04T18:08:27.232Z,1.70
2023-02-04T18:10:57.391Z,2.80
2023-02-04T18:13:32.056Z,1.60
2023-02-04T18:16:10.303Z,2.10
2023-02-04T18:18:40.520Z,2.80
2023-02-04T18:21:22.726Z,2.20
2023-02-04T18:24:03.325Z,3.20
2023-02-04T18:26:33.663Z,1.90
2023-02-04T18:29:21.705Z,1.90
2023-02-04T18:31:56.013Z,2.20
2023-02-04T18:34:41.039Z,3.50
2023-02-04T18:37:48.414Z,3.50
2023-02-04T18:40:40.627Z,3.80
2023-02-04T18:43:38.286Z,2.40
2023-02-04T18:46:36.442Z,3.90
2023-02-04T18:49:28.928Z,1.90
2023-02-04T18:51:58.841Z,2.10
2023-02-04T18:54:38.788Z,1.70
2023-02-04T18:57:12.489Z,1.80
2023-02-04T18:59:41.828Z,3.20
2023-02-04T19:03:10.715Z,1.40
2023-02-04T19:05:51.055Z,1.30
2023-02-04T19:08:44.500Z,1.30
2023-02-04T19:11:37.282Z,1.50
2023-02-04T19:14:40.537Z,1.50
2023-02-04T19:17:14.681Z,1.20
2023-02-04T19:20:05.710Z,1.50
2023-02-04T19:22:56.952Z,1.80
2023-02-04T19:25:46.686Z,3.10
2023-02-04T19:28:42.940Z,2.30
2023-02-04T19:31:12.935Z,6.30
2023-02-04T19:33:45.331Z,2.60
2023-02-04T19:36:37.708Z,3.00
2023-02-04T19:39:30.679Z,2.80
2023-02-04T19:41:58.507Z,3.50
2023-02-04T19:44:38.329Z,3.20
2023-02-04T19:47:36.725Z,2.70
2023-02-04T19:50:34.721Z,3.00
2023-02-04T19:53:20.075Z,4.30
2023-02-04T19:55:53.412Z,3.90
2023-02-04T19:58:40.964Z,4.40
2023-02-04T20:01:19.418Z,4.30
2023-02-04T20:03:49.502Z,5.00
2023-02-04T20:06:34.994Z,5.00
2023-02-04T20:09:23.416Z,4.20
2023-02-04T20:12:08.265Z,3.40
2023-02-04T20:14:47.086Z,1.80
2023-02-04T20:17:37.595Z,2.00
2023-02-04T20:20:26.737Z,2.50
2023-02-04T20:23:14.415Z,3.40
2023-02-04T20:25:50.462Z,3.00
2023-02-04T20:28:42.793Z,3.00
2023-02-04T20:31:29.946Z,2.90
2023-02-04T20:33:59.679Z,3.50
2023-02-04T20:36:38.555Z,3.10
2023-02-04T20:39:08.981Z,2.90
2023-02-04T20:41:38.743Z,3.20
2023-02-04T20:44:27.780Z,3.30
2023-02-04T20:47:17.685Z,3.30
2023-02-04T20:49:54.110Z,1.90
2023-02-04T20:52:40.198Z,2.80
2023-02-04T20:55:23.039Z,2.10
2023-02-04T20:58:11.204Z,2.50
2023-02-04T21:00:40.523Z,3.00
2023-02-04T21:03:33.509Z,2.70
2023-02-04T21:06:13.685Z,2.20
2023-02-04T21:08:45.762Z,3.50
2023-02-04T21:11:13.780Z,3.10
2023-02-04T21:13:41.580Z,2.80
2023-02-04T21:16:09.815Z,3.00
2023-02-04T21:18:39.834Z,3.60
2023-02-04T21:21:10.208Z,3.90
2023-02-04T21:23:38.747Z,3.10
2023-02-04T21:26:07.347Z,1.90
2023-02-04T21:28:35.209Z,3.10
2023-02-04T21:31:03.242Z,3.20
2023-02-04T21:33:31.303Z,2.40
2023-02-04T21:35:58.985Z,2.60
2023-02-04T21:38:29.067Z,3.80
2023-02-04T21:40:56.820Z,5.00
2023-02-04T21:43:24.563Z,5.10
2023-02-04T21:45:52.261Z,4.20
2023-02-04T21:48:20.052Z,3.90
2023-02-04T21:50:47.831Z,3.40
2023-02-04T21:53:15.792Z,4.60
2023-02-04T21:55:43.450Z,3.40
2023-02-04T21:58:11.138Z,3.40
2023-02-04T22:00:38.882Z,3.80
2023-02-04T22:03:10.168Z,2.80
2023-02-04T22:05:37.935Z,4.40
2023-02-04T22:08:05.612Z,3.80
2023-02-04T22:10:33.330Z,4.10
2023-02-04T22:13:01.159Z,3.90
2023-02-04T22:15:29.313Z,4.30
2023-02-04T22:17:57.003Z,3.80
2023-02-04T22:20:25.725Z,3.00
2023-02-04T22:22:54.009Z,4.20
2023-02-04T22:25:22.104Z,3.20
2023-02-04T22:27:50.234Z,5.70
2023-02-04T22:30:19.092Z,6.50
2023-02-04T22:32:47.063Z,5.20
2023-02-04T22:35:15.530Z,3.80
2023-02-04T22:37:43.398Z,6.90
2023-02-04T22:40:13.403Z,4.30
2023-02-04T22:42:41.238Z,5.30
2023-02-04T22:45:10.428Z,3.90
2023-02-04T22:47:38.488Z,5.00
2023-02-04T22:50:07.189Z,4.20
2023-02-04T22:52:35.029Z,4.10
2023-02-04T22:55:03.398Z,4.10
2023-02-04T22:57:31.110Z,4.30
2023-02-04T22:59:59.225Z,4.40
2023-02-04T23:02:27.017Z,2.80
2023-02-04T23:04:54.704Z,4.40
2023-02-04T23:07:22.396Z,5.10
2023-02-04T23:09:50.127Z,4.30
2023-02-04T23:12:17.884Z,4.60
2023-02-04T23:14:48.794Z,4.10
2023-02-04T23:17:18.476Z,4.00
2023-02-04T23:19:46.308Z,4.40
2023-02-04T23:22:15.918Z,4.80
2023-02-04T23:24:44.148Z,4.40
2023-02-04T23:27:12.640Z,3.80
2023-02-04T23:29:40.939Z,3.60
2023-02-04T23:32:09.261Z,3.00
2023-02-04T23:34:37.263Z,4.70
2023-02-04T23:37:04.987Z,4.90
2023-02-04T23:39:33.132Z,5.60
2023-02-04T23:42:01.006Z,4.80
2023-02-04T23:44:28.748Z,4.30
2023-02-04T23:46:56.558Z,3.80
2023-02-04T23:49:24.330Z,2.90
2023-02-04T23:51:52.093Z,3.60
2023-02-04T23:54:19.968Z,3.00
2023-02-04T23:56:47.703Z,3.00
2023-02-04T23:59:15.776Z,4.70
